KDLS/DLS METAR and TAF weather

Enter ICAO airport designator
Station Type Date Time Source
KDLS METAR 2023/02/05 14:53 UTC NOAA

KDLS 051453Z AUTO 00000KT 3SM BR BKN006 OVC026 03/03 A2975 RMK AO2 RAE11 CIG 005V009 SLP074 P0000 60007 T00330028 53016


Station Type Date Time Source
KDLS Decoded METAR 2023/02/05 14:53 UTC NOAA

THE DALLES MUNICIPAL AIRPORT , OR, United States (KDLS) 45-37N 121-10W 71M
Feb 05, 2023 - 09:53 AM EST / 2023.02.05 1453 UTC
Wind: Calm:0
Visibility: 3 mile(s):0
Sky conditions: overcast
Weather: mist
Precipitation last hour: A trace
Temperature: 37.9 F (3.3 C)
Dew Point: 37.0 F (2.8 C)
Relative Humidity: 96%
Pressure (altimeter): 29.75 in. Hg (1007 hPa)
Pressure tendency: 0.05 inches (1.6 hPa) higher than three hours ago
ob: KDLS 051453Z AUTO 00000KT 3SM BR BKN006 OVC026 03/03 A2975 RMK AO2 RAE11 CIG 005V009 SLP074 P0000 60007 T00330028 53016
cycle: 15

Station Type Date Time Source
KDLS TAF 2023/02/05 12:22 UTC NOAA

TAF KDLS 051120Z 0512/0612 VRB05KT 3SM -SHRA BR OVC045
FM051400 30007KT 3SM -SHRA BR OVC020
FM052200 30012G22KT P6SM OVC030
FM060500 30022G34KT P6SM OVC050

Example: see airport list